Observations for ALBENGA, Italy (LIMG)

LIMG 180650Z 00000KT CAVOK 24/14 Q1015  
LIMG 180600Z 00000KT CAVOK 21/14 Q1015
LIMG 171750Z 10006KT CAVOK 28/13 Q1013  
LIMG 171650Z 19003KT CAVOK 30/10 Q1013  
LIMG 171550Z 23007KT CAVOK 30/11 Q1013  
LIMG 171450Z 11005KT CAVOK 31/12 Q1014  
LIMG 171350Z 10010KT CAVOK 29/13 Q1014  
LIMG 171250Z 07006KT CAVOK 29/15 Q1015  
LIMG 171050Z 08008KT CAVOK 27/17 Q1015  
LIMG 170850Z 00000KT CAVOK 26/16 Q1016  
LIMG 170750Z VRB02KT CAVOK 24/15 Q1016  
LIMG 170650Z 00000KT CAVOK 22/16 Q1016